sensor_id;sensor_type;location;lat;lon;timestamp;temperature;humidity
12568;DHT22;6349;50.904;6.136;2022-10-30T00:01:32;16.60;99.90
12568;DHT22;6349;50.904;6.136;2022-10-30T00:03:33;16.60;99.90
12568;DHT22;6349;50.904;6.136;2022-10-30T00:05:35;16.60;99.90
12568;DHT22;6349;50.904;6.136;2022-10-30T00:07:35;16.60;99.90
12568;DHT22;6349;50.904;6.136;2022-10-30T00:09:37;16.60;99.90
12568;DHT22;6349;50.904;6.136;2022-10-30T00:11:39;16.60;99.90
12568;DHT22;6349;50.904;6.136;2022-10-30T00:13:42;16.70;99.90
12568;DHT22;6349;50.904;6.136;2022-10-30T00:15:48;16.70;99.90
12568;DHT22;6349;50.904;6.136;2022-10-30T00:17:50;16.70;99.90
12568;DHT22;6349;50.904;6.136;2022-10-30T00:19:53;16.70;99.90
12568;DHT22;6349;50.904;6.136;2022-10-30T00:21:55;16.60;99.90
12568;DHT22;6349;50.904;6.136;2022-10-30T00:23:58;16.70;99.90
12568;DHT22;6349;50.904;6.136;2022-10-30T00:26:02;16.70;99.90
12568;DHT22;6349;50.904;6.136;2022-10-30T00:28:04;16.70;99.90
12568;DHT22;6349;50.904;6.136;2022-10-30T00:30:07;16.70;99.90
12568;DHT22;6349;50.904;6.136;2022-10-30T00:32:09;16.70;99.90
12568;DHT22;6349;50.904;6.136;2022-10-30T00:34:11;16.70;99.90
12568;DHT22;6349;50.904;6.136;2022-10-30T00:36:12;16.70;99.90
12568;DHT22;6349;50.904;6.136;2022-10-30T00:38:13;16.70;99.90
12568;DHT22;6349;50.904;6.136;2022-10-30T00:40:16;16.70;99.90
12568;DHT22;6349;50.904;6.136;2022-10-30T00:42:18;16.70;99.90
12568;DHT22;6349;50.904;6.136;2022-10-30T00:46:55;16.70;99.90
12568;DHT22;6349;50.904;6.136;2022-10-30T00:49:03;16.70;99.90
12568;DHT22;6349;50.904;6.136;2022-10-30T00:51:07;16.70;99.90
12568;DHT22;6349;50.904;6.136;2022-10-30T00:53:13;16.70;99.90
12568;DHT22;6349;50.904;6.136;2022-10-30T00:55:18;16.70;99.90
12568;DHT22;6349;50.904;6.136;2022-10-30T00:57:20;16.70;99.90
12568;DHT22;6349;50.904;6.136;2022-10-30T00:59:25;16.70;99.90
12568;DHT22;6349;50.904;6.136;2022-10-30T01:01:28;16.70;99.90
12568;DHT22;6349;50.904;6.136;2022-10-30T01:03:32;16.80;99.90
12568;DHT22;6349;50.904;6.136;2022-10-30T01:05:34;16.80;99.90
12568;DHT22;6349;50.904;6.136;2022-10-30T01:07:35;16.90;99.90
12568;DHT22;6349;50.904;6.136;2022-10-30T01:09:37;17.00;99.90
12568;DHT22;6349;50.904;6.136;2022-10-30T01:11:39;17.00;99.90
12568;DHT22;6349;50.904;6.136;2022-10-30T01:13:40;17.10;99.90
12568;DHT22;6349;50.904;6.136;2022-10-30T01:15:56;17.10;99.90
12568;DHT22;6349;50.904;6.136;2022-10-30T01:18:12;17.20;99.90
12568;DHT22;6349;50.904;6.136;2022-10-30T01:28:27;17.20;99.90
12568;DHT22;6349;50.904;6.136;2022-10-30T01:33:22;17.20;99.90
12568;DHT22;6349;50.904;6.136;2022-10-30T01:35:47;17.20;99.90
12568;DHT22;6349;50.904;6.136;2022-10-30T01:38:20;17.20;99.90
12568;DHT22;6349;50.904;6.136;2022-10-30T01:40:23;17.20;99.90
12568;DHT22;6349;50.904;6.136;2022-10-30T01:42:47;17.20;99.90
12568;DHT22;6349;50.904;6.136;2022-10-30T01:44:48;17.10;99.90
12568;DHT22;6349;50.904;6.136;2022-10-30T01:54:32;16.60;99.90
12568;DHT22;6349;50.904;6.136;2022-10-30T01:59:16;16.50;99.90
12568;DHT22;6349;50.904;6.136;2022-10-30T02:01:18;16.40;99.90
12568;DHT22;6349;50.904;6.136;2022-10-30T02:03:20;16.40;99.90
12568;DHT22;6349;50.904;6.136;2022-10-30T02:05:34;16.40;99.90
12568;DHT22;6349;50.904;6.136;2022-10-30T02:07:36;16.30;99.90
12568;DHT22;6349;50.904;6.136;2022-10-30T02:09:37;16.40;99.90
12568;DHT22;6349;50.904;6.136;2022-10-30T02:11:39;16.30;99.90
12568;DHT22;6349;50.904;6.136;2022-10-30T02:13:39;16.30;99.90
12568;DHT22;6349;50.904;6.136;2022-10-30T02:15:41;16.30;99.90
12568;DHT22;6349;50.904;6.136;2022-10-30T02:17:42;16.30;99.90
12568;DHT22;6349;50.904;6.136;2022-10-30T02:19:43;16.30;99.90
12568;DHT22;6349;50.904;6.136;2022-10-30T02:21:44;16.30;99.90
12568;DHT22;6349;50.904;6.136;2022-10-30T02:23:44;16.30;99.90
12568;DHT22;6349;50.904;6.136;2022-10-30T02:25:45;16.30;99.90
12568;DHT22;6349;50.904;6.136;2022-10-30T02:27:46;16.30;99.90
12568;DHT22;6349;50.904;6.136;2022-10-30T02:29:46;16.30;99.90
12568;DHT22;6349;50.904;6.136;2022-10-30T02:31:48;16.30;99.90
12568;DHT22;6349;50.904;6.136;2022-10-30T02:33:49;16.30;99.90
12568;DHT22;6349;50.904;6.136;2022-10-30T02:35:50;16.30;99.90
12568;DHT22;6349;50.904;6.136;2022-10-30T02:37:51;16.20;99.90
12568;DHT22;6349;50.904;6.136;2022-10-30T02:39:51;16.20;99.90
12568;DHT22;6349;50.904;6.136;2022-10-30T02:41:52;16.20;99.90
12568;DHT22;6349;50.904;6.136;2022-10-30T02:43:53;16.20;99.90
12568;DHT22;6349;50.904;6.136;2022-10-30T02:45:53;16.20;99.90
12568;DHT22;6349;50.904;6.136;2022-10-30T02:47:54;16.20;99.90
12568;DHT22;6349;50.904;6.136;2022-10-30T02:49:55;16.20;99.90
12568;DHT22;6349;50.904;6.136;2022-10-30T02:51:56;16.20;99.90
12568;DHT22;6349;50.904;6.136;2022-10-30T02:53:57;16.30;99.90
12568;DHT22;6349;50.904;6.136;2022-10-30T02:56:13;16.30;99.90
12568;DHT22;6349;50.904;6.136;2022-10-30T02:58:14;16.30;99.90
12568;DHT22;6349;50.904;6.136;2022-10-30T03:00:15;16.30;99.90
12568;DHT22;6349;50.904;6.136;2022-10-30T03:02:15;16.30;99.90
12568;DHT22;6349;50.904;6.136;2022-10-30T03:04:16;16.30;99.90
12568;DHT22;6349;50.904;6.136;2022-10-30T03:06:17;16.30;99.90
12568;DHT22;6349;50.904;6.136;2022-10-30T03:08:17;16.30;99.90
12568;DHT22;6349;50.904;6.136;2022-10-30T03:10:18;16.30;99.90
12568;DHT22;6349;50.904;6.136;2022-10-30T03:12:19;16.30;99.90
12568;DHT22;6349;50.904;6.136;2022-10-30T03:14:25;16.30;99.90
12568;DHT22;6349;50.904;6.136;2022-10-30T03:16:26;16.30;99.90
12568;DHT22;6349;50.904;6.136;2022-10-30T03:18:28;16.30;99.90
12568;DHT22;6349;50.904;6.136;2022-10-30T03:20:29;16.30;99.90
12568;DHT22;6349;50.904;6.136;2022-10-30T03:22:29;16.20;99.90
12568;DHT22;6349;50.904;6.136;2022-10-30T03:24:30;16.30;99.90
12568;DHT22;6349;50.904;6.136;2022-10-30T03:26:31;16.20;99.90
12568;DHT22;6349;50.904;6.136;2022-10-30T03:28:31;16.20;99.90
12568;DHT22;6349;50.904;6.136;2022-10-30T03:30:32;16.20;99.90
12568;DHT22;6349;50.904;6.136;2022-10-30T03:32:33;16.20;99.90
12568;DHT22;6349;50.904;6.136;2022-10-30T03:34:33;16.20;99.90
12568;DHT22;6349;50.904;6.136;2022-10-30T03:36:34;16.20;99.90
12568;DHT22;6349;50.904;6.136;2022-10-30T03:38:35;16.20;99.90
12568;DHT22;6349;50.904;6.136;2022-10-30T03:40:35;16.10;99.90
12568;DHT22;6349;50.904;6.136;2022-10-30T03:42:38;16.10;99.90
12568;DHT22;6349;50.904;6.136;2022-10-30T03:44:39;16.10;99.90
12568;DHT22;6349;50.904;6.136;2022-10-30T03:46:40;16.10;99.90
12568;DHT22;6349;50.904;6.136;2022-10-30T03:48:40;16.10;99.90
12568;DHT22;6349;50.904;6.136;2022-10-30T03:50:41;16.00;99.90
12568;DHT22;6349;50.904;6.136;2022-10-30T03:52:41;16.00;99.90
12568;DHT22;6349;50.904;6.136;2022-10-30T03:54:42;16.00;99.90
12568;DHT22;6349;50.904;6.136;2022-10-30T03:56:43;16.00;99.90
12568;DHT22;6349;50.904;6.136;2022-10-30T03:58:44;16.00;99.90
12568;DHT22;6349;50.904;6.136;2022-10-30T04:00:45;15.90;99.90
12568;DHT22;6349;50.904;6.136;2022-10-30T04:02:46;15.90;99.90
12568;DHT22;6349;50.904;6.136;2022-10-30T04:04:47;15.80;99.90
12568;DHT22;6349;50.904;6.136;2022-10-30T04:06:48;15.80;99.90
12568;DHT22;6349;50.904;6.136;2022-10-30T04:08:48;15.80;99.90
12568;DHT22;6349;50.904;6.136;2022-10-30T04:10:49;15.80;99.90
12568;DHT22;6349;50.904;6.136;2022-10-30T04:12:50;15.70;99.90
12568;DHT22;6349;50.904;6.136;2022-10-30T04:14:52;15.70;99.90
12568;DHT22;6349;50.904;6.136;2022-10-30T04:16:53;15.70;99.90
12568;DHT22;6349;50.904;6.136;2022-10-30T04:18:53;15.70;99.90
12568;DHT22;6349;50.904;6.136;2022-10-30T04:20:54;15.70;99.90
12568;DHT22;6349;50.904;6.136;2022-10-30T04:22:59;15.70;99.90
12568;DHT22;6349;50.904;6.136;2022-10-30T04:25:00;15.70;99.90
12568;DHT22;6349;50.904;6.136;2022-10-30T04:27:01;15.60;99.90
12568;DHT22;6349;50.904;6.136;2022-10-30T04:29:01;15.60;99.90
12568;DHT22;6349;50.904;6.136;2022-10-30T04:31:02;15.60;99.90
12568;DHT22;6349;50.904;6.136;2022-10-30T04:33:06;15.70;99.90
12568;DHT22;6349;50.904;6.136;2022-10-30T04:35:07;15.60;99.90
12568;DHT22;6349;50.904;6.136;2022-10-30T04:37:07;15.60;99.90
12568;DHT22;6349;50.904;6.136;2022-10-30T04:39:08;15.60;99.90
12568;DHT22;6349;50.904;6.136;2022-10-30T04:41:09;15.60;99.90
12568;DHT22;6349;50.904;6.136;2022-10-30T04:43:10;15.60;99.90
12568;DHT22;6349;50.904;6.136;2022-10-30T04:45:11;15.60;99.90
12568;DHT22;6349;50.904;6.136;2022-10-30T04:47:12;15.60;99.90
12568;DHT22;6349;50.904;6.136;2022-10-30T04:49:12;15.60;99.90
12568;DHT22;6349;50.904;6.136;2022-10-30T04:51:13;15.50;99.90
12568;DHT22;6349;50.904;6.136;2022-10-30T04:53:16;15.50;99.90
12568;DHT22;6349;50.904;6.136;2022-10-30T04:55:17;15.50;99.90
12568;DHT22;6349;50.904;6.136;2022-10-30T04:57:17;15.50;99.90
12568;DHT22;6349;50.904;6.136;2022-10-30T04:59:18;15.40;99.90
12568;DHT22;6349;50.904;6.136;2022-10-30T05:01:19;15.40;99.90
12568;DHT22;6349;50.904;6.136;2022-10-30T05:03:21;15.40;99.90
12568;DHT22;6349;50.904;6.136;2022-10-30T05:05:22;15.30;99.90
12568;DHT22;6349;50.904;6.136;2022-10-30T05:07:22;15.30;99.90
12568;DHT22;6349;50.904;6.136;2022-10-30T05:09:23;15.30;99.90
12568;DHT22;6349;50.904;6.136;2022-10-30T05:11:24;15.30;99.90
12568;DHT22;6349;50.904;6.136;2022-10-30T05:13:25;15.30;99.90
12568;DHT22;6349;50.904;6.136;2022-10-30T05:15:25;15.30;99.90
12568;DHT22;6349;50.904;6.136;2022-10-30T05:17:26;15.40;99.90
12568;DHT22;6349;50.904;6.136;2022-10-30T05:19:26;15.40;99.90
12568;DHT22;6349;50.904;6.136;2022-10-30T05:21:27;15.40;99.90
12568;DHT22;6349;50.904;6.136;2022-10-30T05:23:28;15.40;99.90
12568;DHT22;6349;50.904;6.136;2022-10-30T05:25:28;15.40;99.90
12568;DHT22;6349;50.904;6.136;2022-10-30T05:27:29;15.50;99.90
12568;DHT22;6349;50.904;6.136;2022-10-30T05:29:29;15.50;99.90
12568;DHT22;6349;50.904;6.136;2022-10-30T05:31:30;15.40;99.90
12568;DHT22;6349;50.904;6.136;2022-10-30T05:33:30;15.50;99.90
12568;DHT22;6349;50.904;6.136;2022-10-30T05:35:32;15.40;99.90
12568;DHT22;6349;50.904;6.136;2022-10-30T05:37:33;15.40;99.90
12568;DHT22;6349;50.904;6.136;2022-10-30T05:39:33;15.40;99.90
12568;DHT22;6349;50.904;6.136;2022-10-30T05:41:34;15.40;99.90
12568;DHT22;6349;50.904;6.136;2022-10-30T05:43:34;15.40;99.90
12568;DHT22;6349;50.904;6.136;2022-10-30T05:45:35;15.30;99.90
12568;DHT22;6349;50.904;6.136;2022-10-30T05:47:35;15.30;99.90
12568;DHT22;6349;50.904;6.136;2022-10-30T05:49:36;15.30;99.90
12568;DHT22;6349;50.904;6.136;2022-10-30T05:51:36;15.30;99.90
12568;DHT22;6349;50.904;6.136;2022-10-30T05:53:37;15.30;99.90
12568;DHT22;6349;50.904;6.136;2022-10-30T05:55:37;15.30;99.90
12568;DHT22;6349;50.904;6.136;2022-10-30T05:57:38;15.30;99.90
12568;DHT22;6349;50.904;6.136;2022-10-30T05:59:39;15.20;99.90
12568;DHT22;6349;50.904;6.136;2022-10-30T06:01:39;15.20;99.90
12568;DHT22;6349;50.904;6.136;2022-10-30T06:03:40;15.10;99.90
12568;DHT22;6349;50.904;6.136;2022-10-30T06:05:43;15.10;99.90
12568;DHT22;6349;50.904;6.136;2022-10-30T06:07:44;15.00;99.90
12568;DHT22;6349;50.904;6.136;2022-10-30T06:09:45;15.00;99.90
12568;DHT22;6349;50.904;6.136;2022-10-30T06:11:45;15.00;99.90
12568;DHT22;6349;50.904;6.136;2022-10-30T06:13:47;14.90;99.90
12568;DHT22;6349;50.904;6.136;2022-10-30T06:15:47;15.00;99.90
12568;DHT22;6349;50.904;6.136;2022-10-30T06:17:48;15.00;99.90
12568;DHT22;6349;50.904;6.136;2022-10-30T06:19:49;15.00;99.90
12568;DHT22;6349;50.904;6.136;2022-10-30T06:21:50;15.00;99.90
12568;DHT22;6349;50.904;6.136;2022-10-30T06:23:50;15.00;99.90
12568;DHT22;6349;50.904;6.136;2022-10-30T06:25:51;15.00;99.90
12568;DHT22;6349;50.904;6.136;2022-10-30T06:27:51;14.90;99.90
12568;DHT22;6349;50.904;6.136;2022-10-30T06:29:52;14.90;99.90
12568;DHT22;6349;50.904;6.136;2022-10-30T06:31:54;15.00;99.90
12568;DHT22;6349;50.904;6.136;2022-10-30T06:33:54;15.00;99.90
12568;DHT22;6349;50.904;6.136;2022-10-30T06:35:55;15.00;99.90
12568;DHT22;6349;50.904;6.136;2022-10-30T06:37:56;15.00;99.90
12568;DHT22;6349;50.904;6.136;2022-10-30T06:39:59;15.00;99.90
12568;DHT22;6349;50.904;6.136;2022-10-30T06:42:00;15.00;99.90
12568;DHT22;6349;50.904;6.136;2022-10-30T06:44:01;15.00;99.90
12568;DHT22;6349;50.904;6.136;2022-10-30T06:46:01;14.90;99.90
12568;DHT22;6349;50.904;6.136;2022-10-30T06:48:02;14.90;99.90
12568;DHT22;6349;50.904;6.136;2022-10-30T06:50:05;14.80;99.90
12568;DHT22;6349;50.904;6.136;2022-10-30T06:52:06;14.80;99.90
12568;DHT22;6349;50.904;6.136;2022-10-30T06:54:06;14.80;99.90
12568;DHT22;6349;50.904;6.136;2022-10-30T06:56:08;14.80;99.90
12568;DHT22;6349;50.904;6.136;2022-10-30T06:58:08;14.80;99.90
12568;DHT22;6349;50.904;6.136;2022-10-30T07:00:09;14.80;99.90
12568;DHT22;6349;50.904;6.136;2022-10-30T07:02:10;14.80;99.90
12568;DHT22;6349;50.904;6.136;2022-10-30T07:04:11;14.90;99.90
12568;DHT22;6349;50.904;6.136;2022-10-30T07:06:11;14.90;99.90
12568;DHT22;6349;50.904;6.136;2022-10-30T07:08:12;14.90;99.90
12568;DHT22;6349;50.904;6.136;2022-10-30T07:10:12;14.90;99.90
12568;DHT22;6349;50.904;6.136;2022-10-30T07:12:13;15.00;99.90
12568;DHT22;6349;50.904;6.136;2022-10-30T07:14:14;14.90;99.90
12568;DHT22;6349;50.904;6.136;2022-10-30T07:16:14;14.90;99.90
12568;DHT22;6349;50.904;6.136;2022-10-30T07:18:15;14.90;99.90
12568;DHT22;6349;50.904;6.136;2022-10-30T07:20:15;14.90;99.90
12568;DHT22;6349;50.904;6.136;2022-10-30T07:22:16;15.00;99.90
12568;DHT22;6349;50.904;6.136;2022-10-30T07:24:17;15.00;99.90
12568;DHT22;6349;50.904;6.136;2022-10-30T07:26:17;15.00;99.90
12568;DHT22;6349;50.904;6.136;2022-10-30T07:28:18;15.00;99.90
12568;DHT22;6349;50.904;6.136;2022-10-30T07:30:22;15.00;99.90
12568;DHT22;6349;50.904;6.136;2022-10-30T07:32:23;15.00;99.90
12568;DHT22;6349;50.904;6.136;2022-10-30T07:34:24;15.10;99.90
12568;DHT22;6349;50.904;6.136;2022-10-30T07:36:24;15.10;99.90
12568;DHT22;6349;50.904;6.136;2022-10-30T07:38:25;15.10;99.90
12568;DHT22;6349;50.904;6.136;2022-10-30T07:40:25;15.10;99.90
12568;DHT22;6349;50.904;6.136;2022-10-30T07:42:26;15.00;99.90
12568;DHT22;6349;50.904;6.136;2022-10-30T07:44:27;15.10;99.90
12568;DHT22;6349;50.904;6.136;2022-10-30T07:46:27;15.10;99.90
12568;DHT22;6349;50.904;6.136;2022-10-30T07:48:28;15.10;99.90
12568;DHT22;6349;50.904;6.136;2022-10-30T07:50:28;15.10;99.90
12568;DHT22;6349;50.904;6.136;2022-10-30T07:52:31;15.10;99.90
12568;DHT22;6349;50.904;6.136;2022-10-30T07:54:32;15.10;99.90
12568;DHT22;6349;50.904;6.136;2022-10-30T07:56:33;15.10;99.90
12568;DHT22;6349;50.904;6.136;2022-10-30T07:58:33;15.20;99.90
12568;DHT22;6349;50.904;6.136;2022-10-30T08:00:34;15.20;99.90
12568;DHT22;6349;50.904;6.136;2022-10-30T08:02:35;15.20;99.90
12568;DHT22;6349;50.904;6.136;2022-10-30T08:04:36;15.30;99.90
12568;DHT22;6349;50.904;6.136;2022-10-30T08:06:36;15.30;99.90
12568;DHT22;6349;50.904;6.136;2022-10-30T08:08:37;15.30;99.90
12568;DHT22;6349;50.904;6.136;2022-10-30T08:10:37;15.40;99.90
12568;DHT22;6349;50.904;6.136;2022-10-30T08:12:38;15.50;99.90
12568;DHT22;6349;50.904;6.136;2022-10-30T08:14:41;15.50;99.90
12568;DHT22;6349;50.904;6.136;2022-10-30T08:16:41;15.60;99.90
12568;DHT22;6349;50.904;6.136;2022-10-30T08:18:42;15.60;99.90
12568;DHT22;6349;50.904;6.136;2022-10-30T08:20:42;15.70;99.90
12568;DHT22;6349;50.904;6.136;2022-10-30T08:22:51;15.80;99.90
12568;DHT22;6349;50.904;6.136;2022-10-30T08:24:52;15.90;99.90
12568;DHT22;6349;50.904;6.136;2022-10-30T08:26:53;15.90;99.90
12568;DHT22;6349;50.904;6.136;2022-10-30T08:28:53;16.10;99.90
12568;DHT22;6349;50.904;6.136;2022-10-30T08:30:54;16.10;99.90
12568;DHT22;6349;50.904;6.136;2022-10-30T08:32:57;16.20;99.90
12568;DHT22;6349;50.904;6.136;2022-10-30T08:34:58;16.30;99.90
12568;DHT22;6349;50.904;6.136;2022-10-30T08:36:58;16.30;99.90
12568;DHT22;6349;50.904;6.136;2022-10-30T08:38:59;16.40;99.90
12568;DHT22;6349;50.904;6.136;2022-10-30T08:41:01;16.50;99.90
12568;DHT22;6349;50.904;6.136;2022-10-30T08:43:02;16.60;99.90
12568;DHT22;6349;50.904;6.136;2022-10-30T08:45:02;16.70;99.90
12568;DHT22;6349;50.904;6.136;2022-10-30T08:47:03;16.70;99.90
12568;DHT22;6349;50.904;6.136;2022-10-30T08:49:04;16.80;99.90
12568;DHT22;6349;50.904;6.136;2022-10-30T08:51:04;16.90;99.90
12568;DHT22;6349;50.904;6.136;2022-10-30T08:53:09;16.90;99.90
12568;DHT22;6349;50.904;6.136;2022-10-30T08:55:10;17.00;99.90
12568;DHT22;6349;50.904;6.136;2022-10-30T08:57:11;17.00;99.90
12568;DHT22;6349;50.904;6.136;2022-10-30T08:59:11;17.10;99.90
12568;DHT22;6349;50.904;6.136;2022-10-30T09:01:12;17.20;99.90
12568;DHT22;6349;50.904;6.136;2022-10-30T09:03:13;17.30;99.90
12568;DHT22;6349;50.904;6.136;2022-10-30T09:05:13;17.30;99.90
12568;DHT22;6349;50.904;6.136;2022-10-30T09:07:14;17.30;99.90
12568;DHT22;6349;50.904;6.136;2022-10-30T09:09:14;17.40;99.90
12568;DHT22;6349;50.904;6.136;2022-10-30T09:11:15;17.40;99.90
12568;DHT22;6349;50.904;6.136;2022-10-30T09:13:16;17.50;99.90
12568;DHT22;6349;50.904;6.136;2022-10-30T09:15:17;17.50;99.90
12568;DHT22;6349;50.904;6.136;2022-10-30T09:17:17;17.50;99.90
12568;DHT22;6349;50.904;6.136;2022-10-30T09:19:18;17.60;99.90
12568;DHT22;6349;50.904;6.136;2022-10-30T09:21:19;17.60;99.90
12568;DHT22;6349;50.904;6.136;2022-10-30T09:23:19;17.60;99.90
12568;DHT22;6349;50.904;6.136;2022-10-30T09:25:20;17.60;99.90
12568;DHT22;6349;50.904;6.136;2022-10-30T09:27:21;17.60;99.90
12568;DHT22;6349;50.904;6.136;2022-10-30T09:29:22;17.70;99.90
12568;DHT22;6349;50.904;6.136;2022-10-30T09:31:23;17.70;99.90
12568;DHT22;6349;50.904;6.136;2022-10-30T09:33:24;17.70;99.90
12568;DHT22;6349;50.904;6.136;2022-10-30T09:35:24;17.80;99.90
12568;DHT22;6349;50.904;6.136;2022-10-30T09:37:25;17.90;99.90
12568;DHT22;6349;50.904;6.136;2022-10-30T09:39:27;17.90;99.90
12568;DHT22;6349;50.904;6.136;2022-10-30T09:41:59;18.00;99.90
12568;DHT22;6349;50.904;6.136;2022-10-30T09:56:23;18.60;99.90
12568;DHT22;6349;50.904;6.136;2022-10-30T09:58:53;18.80;99.90
12568;DHT22;6349;50.904;6.136;2022-10-30T10:01:20;18.80;99.90
12568;DHT22;6349;50.904;6.136;2022-10-30T10:03:32;18.90;99.90
12568;DHT22;6349;50.904;6.136;2022-10-30T10:05:47;19.00;99.90
12568;DHT22;6349;50.904;6.136;2022-10-30T10:07:53;19.10;99.90
12568;DHT22;6349;50.904;6.136;2022-10-30T10:10:00;19.10;99.90
12568;DHT22;6349;50.904;6.136;2022-10-30T10:12:08;19.20;99.90
12568;DHT22;6349;50.904;6.136;2022-10-30T10:14:16;19.20;99.90
12568;DHT22;6349;50.904;6.136;2022-10-30T10:16:20;19.20;99.90
12568;DHT22;6349;50.904;6.136;2022-10-30T10:18:28;19.30;99.90
12568;DHT22;6349;50.904;6.136;2022-10-30T10:20:36;19.30;99.90
12568;DHT22;6349;50.904;6.136;2022-10-30T10:22:46;19.30;99.90
12568;DHT22;6349;50.904;6.136;2022-10-30T10:24:47;19.40;99.90
12568;DHT22;6349;50.904;6.136;2022-10-30T10:29:37;19.50;99.90
12568;DHT22;6349;50.904;6.136;2022-10-30T10:31:57;19.60;99.90
12568;DHT22;6349;50.904;6.136;2022-10-30T10:36:38;19.60;99.90
12568;DHT22;6349;50.904;6.136;2022-10-30T10:39:06;19.60;99.90
12568;DHT22;6349;50.904;6.136;2022-10-30T10:43:57;19.60;99.90
12568;DHT22;6349;50.904;6.136;2022-10-30T10:46:18;19.60;99.90
12568;DHT22;6349;50.904;6.136;2022-10-30T10:49:09;19.70;99.90
12568;DHT22;6349;50.904;6.136;2022-10-30T10:51:09;19.80;99.90
12568;DHT22;6349;50.904;6.136;2022-10-30T10:53:21;19.90;99.90
12568;DHT22;6349;50.904;6.136;2022-10-30T10:55:27;20.10;99.90
12568;DHT22;6349;50.904;6.136;2022-10-30T10:57:34;20.20;99.90
12568;DHT22;6349;50.904;6.136;2022-10-30T10:59:41;20.20;99.90
12568;DHT22;6349;50.904;6.136;2022-10-30T11:01:57;20.20;99.90
12568;DHT22;6349;50.904;6.136;2022-10-30T11:04:03;20.20;99.90
12568;DHT22;6349;50.904;6.136;2022-10-30T11:08:25;20.10;99.90
12568;DHT22;6349;50.904;6.136;2022-10-30T11:10:26;20.20;99.90
12568;DHT22;6349;50.904;6.136;2022-10-30T11:12:29;20.30;99.90
12568;DHT22;6349;50.904;6.136;2022-10-30T11:14:31;20.30;99.90
12568;DHT22;6349;50.904;6.136;2022-10-30T11:19:00;20.40;99.90
12568;DHT22;6349;50.904;6.136;2022-10-30T11:21:06;20.30;99.90
12568;DHT22;6349;50.904;6.136;2022-10-30T11:23:29;20.30;99.90
12568;DHT22;6349;50.904;6.136;2022-10-30T11:25:34;20.40;99.90
12568;DHT22;6349;50.904;6.136;2022-10-30T11:27:35;20.50;99.90
12568;DHT22;6349;50.904;6.136;2022-10-30T11:29:36;20.50;99.90
12568;DHT22;6349;50.904;6.136;2022-10-30T11:31:39;20.40;99.90
12568;DHT22;6349;50.904;6.136;2022-10-30T11:33:40;20.60;99.90
12568;DHT22;6349;50.904;6.136;2022-10-30T11:35:41;20.70;99.90
12568;DHT22;6349;50.904;6.136;2022-10-30T11:37:47;20.70;99.90
12568;DHT22;6349;50.904;6.136;2022-10-30T11:40:01;20.80;99.90
12568;DHT22;6349;50.904;6.136;2022-10-30T11:42:11;20.70;99.90
12568;DHT22;6349;50.904;6.136;2022-10-30T11:44:12;20.60;99.90
12568;DHT22;6349;50.904;6.136;2022-10-30T11:46:20;20.70;99.90
12568;DHT22;6349;50.904;6.136;2022-10-30T11:48:26;20.70;99.90
12568;DHT22;6349;50.904;6.136;2022-10-30T11:50:30;20.80;99.90
12568;DHT22;6349;50.904;6.136;2022-10-30T11:52:36;20.90;99.90
12568;DHT22;6349;50.904;6.136;2022-10-30T11:54:41;20.90;99.90
12568;DHT22;6349;50.904;6.136;2022-10-30T11:56:47;20.90;99.90
12568;DHT22;6349;50.904;6.136;2022-10-30T11:58:52;20.90;99.90
12568;DHT22;6349;50.904;6.136;2022-10-30T12:01:04;20.90;99.90
12568;DHT22;6349;50.904;6.136;2022-10-30T12:03:32;20.90;99.90
12568;DHT22;6349;50.904;6.136;2022-10-30T12:05:36;20.90;99.90
12568;DHT22;6349;50.904;6.136;2022-10-30T12:07:37;21.00;99.90
12568;DHT22;6349;50.904;6.136;2022-10-30T12:09:46;21.10;99.90
12568;DHT22;6349;50.904;6.136;2022-10-30T12:11:47;21.20;99.90
12568;DHT22;6349;50.904;6.136;2022-10-30T12:13:49;21.30;99.90
12568;DHT22;6349;50.904;6.136;2022-10-30T12:16:14;21.30;99.90
12568;DHT22;6349;50.904;6.136;2022-10-30T12:18:19;21.20;99.90
12568;DHT22;6349;50.904;6.136;2022-10-30T12:20:20;21.30;99.90
12568;DHT22;6349;50.904;6.136;2022-10-30T12:22:27;21.20;99.90
12568;DHT22;6349;50.904;6.136;2022-10-30T12:24:31;21.30;99.90
12568;DHT22;6349;50.904;6.136;2022-10-30T12:26:34;21.20;99.90
12568;DHT22;6349;50.904;6.136;2022-10-30T12:28:35;21.10;99.90
12568;DHT22;6349;50.904;6.136;2022-10-30T12:30:43;21.20;99.90
12568;DHT22;6349;50.904;6.136;2022-10-30T12:32:50;21.10;99.90
12568;DHT22;6349;50.904;6.136;2022-10-30T12:37:34;21.00;99.90
12568;DHT22;6349;50.904;6.136;2022-10-30T12:40:00;21.00;99.90
12568;DHT22;6349;50.904;6.136;2022-10-30T12:42:07;21.00;99.90
12568;DHT22;6349;50.904;6.136;2022-10-30T12:44:14;20.90;99.90
12568;DHT22;6349;50.904;6.136;2022-10-30T12:46:34;21.00;99.90
12568;DHT22;6349;50.904;6.136;2022-10-30T12:48:43;20.90;99.90
12568;DHT22;6349;50.904;6.136;2022-10-30T12:53:26;20.80;99.90
12568;DHT22;6349;50.904;6.136;2022-10-30T12:55:38;20.80;99.90
12568;DHT22;6349;50.904;6.136;2022-10-30T12:58:13;20.90;99.90
12568;DHT22;6349;50.904;6.136;2022-10-30T13:00:12;21.00;99.90
12568;DHT22;6349;50.904;6.136;2022-10-30T13:04:43;21.10;99.90
12568;DHT22;6349;50.904;6.136;2022-10-30T13:06:54;21.20;99.90
12568;DHT22;6349;50.904;6.136;2022-10-30T13:11:47;21.20;99.90
12568;DHT22;6349;50.904;6.136;2022-10-30T13:13:52;21.30;99.90
12568;DHT22;6349;50.904;6.136;2022-10-30T13:15:55;21.40;99.90
12568;DHT22;6349;50.904;6.136;2022-10-30T13:17:58;21.50;99.90
12568;DHT22;6349;50.904;6.136;2022-10-30T13:19:59;21.50;99.90
12568;DHT22;6349;50.904;6.136;2022-10-30T13:22:06;21.60;99.90
12568;DHT22;6349;50.904;6.136;2022-10-30T13:24:22;21.70;99.90
12568;DHT22;6349;50.904;6.136;2022-10-30T13:26:54;21.70;99.90
12568;DHT22;6349;50.904;6.136;2022-10-30T13:29:14;21.60;99.90
12568;DHT22;6349;50.904;6.136;2022-10-30T13:34:01;21.50;99.90
12568;DHT22;6349;50.904;6.136;2022-10-30T13:36:20;21.60;99.90
12568;DHT22;6349;50.904;6.136;2022-10-30T13:38:42;21.60;99.90
12568;DHT22;6349;50.904;6.136;2022-10-30T13:40:52;21.60;99.90
12568;DHT22;6349;50.904;6.136;2022-10-30T13:48:12;21.70;99.90
12568;DHT22;6349;50.904;6.136;2022-10-30T13:50:47;21.60;99.90
12568;DHT22;6349;50.904;6.136;2022-10-30T13:52:56;21.60;99.90
12568;DHT22;6349;50.904;6.136;2022-10-30T13:55:28;21.60;99.90
12568;DHT22;6349;50.904;6.136;2022-10-30T14:01:00;21.50;99.90
12568;DHT22;6349;50.904;6.136;2022-10-30T14:02:46;21.40;99.90
12568;DHT22;6349;50.904;6.136;2022-10-30T14:04:58;21.40;99.90
12568;DHT22;6349;50.904;6.136;2022-10-30T14:09:40;21.40;99.90
12568;DHT22;6349;50.904;6.136;2022-10-30T14:11:43;21.50;99.90
12568;DHT22;6349;50.904;6.136;2022-10-30T14:16:05;21.60;99.90
12568;DHT22;6349;50.904;6.136;2022-10-30T14:20:25;21.50;99.90
12568;DHT22;6349;50.904;6.136;2022-10-30T14:22:26;21.50;99.90
12568;DHT22;6349;50.904;6.136;2022-10-30T14:24:31;21.40;99.90
12568;DHT22;6349;50.904;6.136;2022-10-30T14:26:33;21.40;99.90
12568;DHT22;6349;50.904;6.136;2022-10-30T14:28:36;21.30;99.90
12568;DHT22;6349;50.904;6.136;2022-10-30T14:30:37;21.30;99.90
12568;DHT22;6349;50.904;6.136;2022-10-30T14:32:38;21.20;99.90